Good Hope, Minnesota
Current Conditions -  °F | °C
As of 4:13 PM on Sunday 23 Nov 2014 (Local Time) from KFOZ Reporting Station
Haze Haze  
Wind Chill: 37°   Ceiling: 6000
Heat Index: 37°   Visibility: 5mi
Dew Point: 34°   Wind: 0mph
Humidity: 87%   Direction: NA
Pressure: 29.38"   Gusts: NA
Location:  47.6295°N, 94.1797°W
Report Text: KFOZ 232213Z AUTO 00000KT 5SM BR SCT044 OVC060 03/01 A2938 RMK AO2
Loading
Personal Weather Stations






























Interactive Weather Map New forecast layout! Learn more

10-Day Weather Forecast

Advertisements
Track Severe Weather on mobile